createdAt,value
2023-04-25T00:02:51.392Z,1031.2
2023-04-25T00:04:34.800Z,1029.4
2023-04-25T00:06:18.180Z,1026.6
2023-04-25T00:08:01.578Z,1021.6
2023-04-25T00:09:44.972Z,1015.1
2023-04-25T00:11:28.391Z,1008.7
2023-04-25T00:13:11.768Z,1000.5
2023-04-25T00:14:55.161Z,999.3
2023-04-25T00:16:38.574Z,996.2
2023-04-25T00:18:22.288Z,990.7
2023-04-25T00:20:05.675Z,986.2
2023-04-25T00:21:49.077Z,982.1
2023-04-25T00:23:32.465Z,979.7
2023-04-25T00:25:15.856Z,976.7
2023-04-25T00:26:59.256Z,973
2023-04-25T00:28:42.654Z,969.4
2023-04-25T00:30:26.048Z,966.6
2023-04-25T00:35:35.285Z,955.5
2023-04-25T00:37:18.726Z,949
2023-04-25T00:39:02.136Z,947.6
2023-04-25T00:40:45.544Z,944.1
2023-04-25T00:42:28.925Z,940.1
2023-04-25T00:44:12.313Z,937
2023-04-25T00:45:55.700Z,937.1
2023-04-25T00:47:39.095Z,932.6
2023-04-25T00:51:05.583Z,925.1
2023-04-25T00:52:49.012Z,921.3
2023-04-25T00:54:32.393Z,919.6
2023-04-25T00:56:15.787Z,918.4
2023-04-25T00:57:59.161Z,916.5
2023-04-25T00:59:42.547Z,914
2023-04-25T01:01:25.931Z,913
2023-04-25T01:03:09.330Z,911.3
2023-04-25T01:08:18.530Z,908.6
2023-04-25T01:10:01.953Z,904.5
2023-04-25T01:11:45.338Z,900.5
2023-04-25T01:13:28.735Z,896
2023-04-25T01:15:12.126Z,894.3
2023-04-25T01:16:55.513Z,893.6
2023-04-25T01:18:38.919Z,890.4
2023-04-25T01:20:22.321Z,885.4
2023-04-25T01:22:05.709Z,882.2
2023-04-25T01:23:49.426Z,878.7
2023-04-25T01:25:32.816Z,880.3
2023-04-25T01:27:16.203Z,878
2023-04-25T01:28:59.589Z,876.3
2023-04-25T01:30:43.004Z,876.5
2023-04-25T01:32:26.390Z,875.1
2023-04-25T01:34:09.816Z,872.3
2023-04-25T01:35:53.180Z,872.1
2023-04-25T01:37:36.592Z,872.5
2023-04-25T01:41:03.076Z,870.1
2023-04-25T01:42:46.477Z,867
2023-04-25T01:44:29.839Z,860.3
2023-04-25T01:46:13.257Z,853.3
2023-04-25T01:47:56.638Z,848.5
2023-04-25T01:49:40.032Z,846.1
2023-04-25T01:51:23.418Z,845.3
2023-04-25T01:53:06.831Z,844.2
2023-04-25T01:58:16.064Z,833.4
2023-04-25T01:59:59.465Z,834.3
2023-04-25T02:01:42.876Z,832.5
2023-04-25T02:03:26.256Z,826.7
2023-04-25T02:05:09.654Z,825.3
2023-04-25T02:06:53.035Z,825.4
2023-04-25T02:08:36.473Z,826.1
2023-04-25T02:10:19.848Z,823.3
2023-04-25T02:13:46.409Z,817
2023-04-25T02:15:29.762Z,813.3
2023-04-25T02:17:13.110Z,811.8
2023-04-25T02:18:56.496Z,809.3
2023-04-25T02:20:39.913Z,809.8
2023-04-25T02:22:23.282Z,804.3
2023-04-25T02:24:06.681Z,800.3
2023-04-25T02:25:50.076Z,802
2023-04-25T02:30:59.314Z,793.9
2023-04-25T02:32:42.721Z,790.1
2023-04-25T02:34:26.112Z,790.7
2023-04-25T02:36:09.573Z,789
2023-04-25T02:37:52.988Z,787.4
2023-04-25T02:39:36.374Z,790.2
2023-04-25T02:41:19.761Z,789.2
2023-04-25T02:43:03.140Z,788.5
2023-04-25T02:46:29.607Z,788.3
2023-04-25T02:48:13.005Z,786.4
2023-04-25T02:49:56.406Z,783.6
2023-04-25T02:51:39.813Z,780
2023-04-25T02:53:23.188Z,775.3
2023-04-25T02:55:06.626Z,775.1
2023-04-25T02:56:49.972Z,773.5
2023-04-25T02:58:33.394Z,769.4
2023-04-25T03:03:42.588Z,761.8
2023-04-25T03:05:26.007Z,757.6
2023-04-25T03:07:09.384Z,757.8
2023-04-25T03:08:52.827Z,757.2
2023-04-25T03:10:36.187Z,755.2
2023-04-25T03:12:19.572Z,752.6
2023-04-25T03:14:02.954Z,751.5
2023-04-25T03:15:46.342Z,749
2023-04-25T03:20:55.609Z,736.2
2023-04-25T03:22:38.994Z,736.3
2023-04-25T03:24:22.380Z,735.3
2023-04-25T03:26:05.799Z,736.3
2023-04-25T03:27:49.197Z,734.7
2023-04-25T03:29:32.596Z,732.5
2023-04-25T03:31:15.982Z,729.2
2023-04-25T03:32:59.397Z,728.8
2023-04-25T03:38:08.606Z,726.1
2023-04-25T03:39:52.021Z,724.7
2023-04-25T03:41:35.416Z,725.6
2023-04-25T03:43:18.816Z,721.3
2023-04-25T03:45:02.200Z,723.2
2023-04-25T03:46:45.590Z,722.1
2023-04-25T03:48:28.981Z,720.8
2023-04-25T03:50:12.394Z,721.6
2023-04-25T03:53:38.944Z,718.2
2023-04-25T03:55:22.265Z,715.2
2023-04-25T03:57:05.651Z,713.3
2023-04-25T03:58:49.042Z,710.5
2023-04-25T04:00:32.461Z,708.2
2023-04-25T04:02:15.861Z,704.1
2023-04-25T04:03:59.248Z,700.8
2023-04-25T04:05:42.627Z,699.1
2023-04-25T04:09:09.117Z,694.1
2023-04-25T04:10:52.511Z,691.1
2023-04-25T04:12:35.913Z,689.8
2023-04-25T04:14:19.286Z,687.3
2023-04-25T04:16:02.706Z,686.3
2023-04-25T04:17:46.090Z,685.3
2023-04-25T04:19:29.503Z,688
2023-04-25T04:21:12.870Z,684.4
2023-04-25T04:24:39.359Z,676.9
2023-04-25T04:26:22.745Z,675.2
2023-04-25T04:28:06.154Z,673.7
2023-04-25T04:29:49.530Z,672.8
2023-04-25T04:31:32.932Z,671.7
2023-04-25T04:33:16.334Z,668.2
2023-04-25T04:34:59.748Z,667.6
2023-04-25T04:36:43.126Z,667.1
2023-04-25T04:38:26.531Z,663.8
2023-04-25T04:40:10.219Z,664.3
2023-04-25T04:41:53.612Z,663.4
2023-04-25T04:43:37.026Z,660.2
2023-04-25T04:45:20.419Z,657
2023-04-25T04:47:03.812Z,656.5
2023-04-25T04:48:47.202Z,657.3
2023-04-25T04:50:30.596Z,658.1
2023-04-25T04:52:13.988Z,655.4
2023-04-25T04:53:57.498Z,653.1
2023-04-25T04:55:41.090Z,652
2023-04-25T04:57:24.499Z,646.4
2023-04-25T04:59:07.891Z,648.6
2023-04-25T05:00:51.287Z,650.1
2023-04-25T05:02:34.680Z,644.7
2023-04-25T05:04:18.077Z,643.7
2023-04-25T05:06:01.459Z,643.2
2023-04-25T05:07:44.871Z,640.5
2023-04-25T05:12:54.113Z,638.7
2023-04-25T05:14:37.522Z,636.2
2023-04-25T05:16:20.892Z,634
2023-04-25T05:18:04.292Z,637.8
2023-04-25T05:19:47.686Z,638.5
2023-04-25T05:21:31.095Z,639.3
2023-04-25T05:23:14.474Z,639.6
2023-04-25T05:24:57.910Z,638
2023-04-25T05:30:07.147Z,633.7
2023-04-25T05:31:50.580Z,631.6
2023-04-25T05:33:33.974Z,630.5
2023-04-25T05:35:17.399Z,629
2023-04-25T05:37:00.783Z,625
2023-04-25T05:38:44.259Z,619.4
2023-04-25T05:40:27.530Z,615.6
2023-04-25T05:42:10.992Z,612.5
2023-04-25T05:45:37.431Z,614.8
2023-04-25T05:47:20.815Z,616.1
2023-04-25T05:49:04.233Z,616
2023-04-25T05:50:47.609Z,613.3
2023-04-25T05:52:30.965Z,611.1
2023-04-25T05:54:14.423Z,609.5
2023-04-25T05:55:57.807Z,609.2
2023-04-25T05:57:41.172Z,608.8
2023-04-25T06:02:50.383Z,609
2023-04-25T06:04:33.801Z,605.8
2023-04-25T06:06:17.167Z,603.5
2023-04-25T06:08:00.560Z,601.7
2023-04-25T06:09:43.962Z,600.1
2023-04-25T06:11:27.367Z,598.5
2023-04-25T06:13:10.771Z,597
2023-04-25T06:14:54.178Z,595.2
2023-04-25T06:18:20.623Z,593.2
2023-04-25T06:20:04.043Z,590.7
2023-04-25T06:21:47.425Z,589.6
2023-04-25T06:23:30.806Z,588.4
2023-04-25T06:25:14.208Z,588.7
2023-04-25T06:26:57.594Z,589.5
2023-04-25T06:28:40.990Z,584.1
2023-04-25T06:30:24.394Z,583
2023-04-25T06:35:33.644Z,585.9
2023-04-25T06:37:17.032Z,586.4
2023-04-25T06:39:00.448Z,586.4
2023-04-25T06:40:43.830Z,588.6
2023-04-25T06:42:27.239Z,585.3
2023-04-25T06:44:10.624Z,582.7
2023-04-25T06:45:54.020Z,582.6
2023-04-25T06:47:37.412Z,580.6
2023-04-25T06:51:03.967Z,579.8
2023-04-25T06:52:47.287Z,580.2
2023-04-25T06:54:30.701Z,578.5
2023-04-25T06:56:14.103Z,574
2023-04-25T06:57:57.473Z,573.4
2023-04-25T06:59:40.885Z,575
2023-04-25T07:01:24.303Z,572.6
2023-04-25T07:03:07.653Z,570.2
2023-04-25T07:08:16.912Z,567.5
2023-04-25T07:10:00.301Z,568.6
2023-04-25T07:11:43.713Z,569.6
2023-04-25T07:13:27.111Z,569.6
2023-04-25T07:15:10.491Z,567.4
2023-04-25T07:16:53.905Z,566.3
2023-04-25T07:18:37.312Z,566
2023-04-25T07:20:20.663Z,564.8
2023-04-25T07:23:47.146Z,565
2023-04-25T07:25:30.542Z,562.4
2023-04-25T07:27:13.945Z,563.5
2023-04-25T07:28:57.369Z,563.1
2023-04-25T07:30:40.746Z,560.8
2023-04-25T07:32:24.133Z,561.1
2023-04-25T07:34:07.532Z,565.6
2023-04-25T07:35:50.935Z,572.7
2023-04-25T07:41:00.198Z,620.9
2023-04-25T07:42:43.644Z,640.6
2023-04-25T07:44:26.953Z,641.4
2023-04-25T07:46:10.359Z,637.8
2023-04-25T07:47:53.738Z,637.3
2023-04-25T07:49:37.130Z,636
2023-04-25T07:51:20.557Z,635.4
2023-04-25T07:53:03.943Z,634.2
2023-04-25T07:58:13.235Z,656.5
2023-04-25T07:59:56.565Z,659.3
2023-04-25T08:01:39.954Z,662.8
2023-04-25T08:03:23.363Z,676.3
2023-04-25T08:05:06.747Z,681.3
2023-04-25T08:06:50.152Z,678.1
2023-04-25T08:08:33.546Z,674
2023-04-25T08:10:16.949Z,668.4
2023-04-25T08:13:43.419Z,669.6
2023-04-25T08:15:26.800Z,673.7
2023-04-25T08:17:10.220Z,683.6
2023-04-25T08:18:53.592Z,690.8
2023-04-25T08:20:37.035Z,689
2023-04-25T08:22:20.403Z,685.4
2023-04-25T08:24:03.788Z,695.3
2023-04-25T08:25:47.186Z,706.8
2023-04-25T08:30:56.435Z,737.9
2023-04-25T08:32:39.867Z,762.1
2023-04-25T08:34:23.212Z,761.6
2023-04-25T08:36:06.776Z,753.1
2023-04-25T08:37:50.067Z,744.3
2023-04-25T08:39:33.401Z,739.7
2023-04-25T08:41:16.857Z,742.5
2023-04-25T08:43:00.320Z,762.3
2023-04-25T08:48:09.457Z,759.5
2023-04-25T08:49:53.015Z,765.4
2023-04-25T08:51:36.363Z,767.1
2023-04-25T08:53:19.832Z,769.5
2023-04-25T08:55:03.094Z,773.6
2023-04-25T08:56:46.584Z,776.3
2023-04-25T08:58:30.000Z,773.3
2023-04-25T09:00:13.322Z,763.4
2023-04-25T09:05:22.498Z,744
2023-04-25T09:07:05.845Z,744.8
2023-04-25T09:08:49.420Z,743.3
2023-04-25T09:10:32.881Z,742.7
2023-04-25T09:12:16.271Z,742.1
2023-04-25T09:13:59.597Z,743
2023-04-25T09:15:43.007Z,744.3
2023-04-25T09:17:26.383Z,746.2
2023-04-25T09:22:35.665Z,796
2023-04-25T09:24:18.872Z,796.1
2023-04-25T09:26:02.458Z,797.4
2023-04-25T09:27:45.828Z,793.2
2023-04-25T09:29:29.224Z,786.4
2023-04-25T09:31:12.626Z,782.8
2023-04-25T09:32:55.863Z,780.8
2023-04-25T09:34:39.229Z,789.3
2023-04-25T09:38:05.880Z,815.9
2023-04-25T09:39:49.180Z,816.6
2023-04-25T09:41:32.583Z,816.5
2023-04-25T09:43:15.932Z,818
2023-04-25T09:44:59.359Z,814.8
2023-04-25T09:46:42.711Z,809.7
2023-04-25T09:48:26.101Z,805.8
2023-04-25T09:50:09.609Z,801.5
2023-04-25T09:55:18.966Z,795.1
2023-04-25T09:57:02.413Z,792.7
2023-04-25T09:58:45.646Z,794.1
2023-04-25T10:00:29.098Z,795.4
2023-04-25T10:02:12.531Z,793.5
2023-04-25T10:03:55.753Z,790.8
2023-04-25T10:05:39.109Z,788.8
2023-04-25T10:07:22.510Z,783
2023-04-25T10:12:31.755Z,791.5
2023-04-25T10:14:15.177Z,820.8
2023-04-25T10:15:58.573Z,864.8
2023-04-25T10:17:42.039Z,874.5
2023-04-25T10:19:25.361Z,876.3
2023-04-25T10:21:08.739Z,868.8
2023-04-25T10:22:52.142Z,870.8
2023-04-25T10:24:35.536Z,870.8
2023-04-25T10:29:44.838Z,883.8
2023-04-25T10:31:28.222Z,884.1
2023-04-25T10:33:11.652Z,882.6
2023-04-25T10:34:55.008Z,887.5
2023-04-25T10:36:38.397Z,889.1
2023-04-25T10:38:21.820Z,889.5
2023-04-25T10:40:05.269Z,890.6
2023-04-25T10:41:48.634Z,893.3
2023-04-25T10:43:32.008Z,895.4
2023-04-25T10:46:58.456Z,895.3
2023-04-25T10:48:41.856Z,898.3
2023-04-25T10:50:25.425Z,901.2
2023-04-25T10:52:08.876Z,904.4
2023-04-25T10:53:52.223Z,909.6
2023-04-25T10:55:35.682Z,911.2
2023-04-25T10:57:18.929Z,909.4
2023-04-25T10:59:02.390Z,911.3
2023-04-25T11:04:11.612Z,914.5
2023-04-25T11:05:55.022Z,912.5
2023-04-25T11:07:38.447Z,912
2023-04-25T11:09:21.818Z,913.2
2023-04-25T11:11:05.238Z,911.6
2023-04-25T11:12:48.673Z,910.5
2023-04-25T11:14:31.996Z,911
2023-04-25T11:16:15.384Z,908.7
2023-04-25T11:21:24.564Z,913.3
2023-04-25T11:23:07.877Z,908.6
2023-04-25T11:24:51.418Z,903
2023-04-25T11:26:34.819Z,901.7
2023-04-25T11:28:18.240Z,908.7
2023-04-25T11:30:01.579Z,917.6
2023-04-25T11:31:45.038Z,922.5
2023-04-25T11:33:28.257Z,923.1
2023-04-25T11:38:37.649Z,939.5
2023-04-25T11:40:21.017Z,935
2023-04-25T11:42:13.644Z,934.7
2023-04-25T11:43:47.667Z,935.7
2023-04-25T11:45:31.212Z,938.6
2023-04-25T11:47:14.635Z,938.1
2023-04-25T11:48:57.855Z,941
2023-04-25T11:50:41.454Z,941.6
2023-04-25T11:52:24.809Z,946.6
2023-04-25T11:57:34.076Z,949.4
2023-04-25T11:59:17.441Z,951.8
2023-04-25T12:01:00.744Z,951.6
2023-04-25T12:02:44.315Z,953
2023-04-25T12:04:27.745Z,954.5
2023-04-25T12:06:11.049Z,956.2
2023-04-25T12:07:54.438Z,957.5
2023-04-25T12:09:37.813Z,957.8
2023-04-25T12:11:21.089Z,959.1
2023-04-25T12:14:47.655Z,957.8
2023-04-25T12:16:31.102Z,957.1
2023-04-25T12:18:14.498Z,955.8
2023-04-25T12:19:57.913Z,954.6
2023-04-25T12:21:41.123Z,954.1
2023-04-25T12:23:24.622Z,954.6
2023-04-25T12:25:08.082Z,955.2
2023-04-25T12:26:51.531Z,956.4
2023-04-25T12:28:34.850Z,956.6
2023-04-25T12:32:01.458Z,951.4
2023-04-25T12:33:44.765Z,951.8
2023-04-25T12:35:28.137Z,949.7
2023-04-25T12:37:11.650Z,950.8
2023-04-25T12:38:54.911Z,950.8
2023-04-25T12:40:38.402Z,952.1
2023-04-25T12:42:21.787Z,951.3
2023-04-25T12:44:05.213Z,949.2
2023-04-25T12:45:48.697Z,948.4
2023-04-25T12:50:57.815Z,947.2
2023-04-25T12:52:41.229Z,944.8
2023-04-25T12:54:24.577Z,942.4
2023-04-25T12:56:08.016Z,943.3
2023-04-25T12:57:51.384Z,940.6
2023-04-25T12:59:34.799Z,940.3
2023-04-25T13:01:18.251Z,944.5
2023-04-25T13:03:01.586Z,946.8
2023-04-25T13:04:44.857Z,948
2023-04-25T13:06:28.636Z,947.8
2023-04-25T13:08:12.060Z,944.8
2023-04-25T13:09:55.460Z,943.2
2023-04-25T13:11:38.858Z,941.4
2023-04-25T13:13:22.317Z,938.3
2023-04-25T13:15:05.626Z,939.1
2023-04-25T13:16:49.024Z,943.4
2023-04-25T13:18:32.429Z,941.5
2023-04-25T13:20:15.839Z,941.7
2023-04-25T13:23:42.141Z,937.9
2023-04-25T13:25:25.658Z,935.5
2023-04-25T13:27:09.112Z,935.2
2023-04-25T13:28:52.470Z,932.3
2023-04-25T13:30:35.910Z,932.3
2023-04-25T13:32:19.275Z,933.2
2023-04-25T13:34:02.590Z,934
2023-04-25T13:35:45.882Z,936.3
2023-04-25T13:40:55.175Z,930.3
2023-04-25T13:42:38.528Z,929.2
2023-04-25T13:44:21.933Z,929.7
2023-04-25T13:46:05.468Z,930.1
2023-04-25T13:47:48.725Z,927
2023-04-25T13:49:32.115Z,926.5
2023-04-25T13:51:15.518Z,926.3
2023-04-25T13:52:59.099Z,924.1
2023-04-25T13:58:08.157Z,922.4
2023-04-25T13:59:51.550Z,923.2
2023-04-25T14:01:34.951Z,924.1
2023-04-25T14:03:18.421Z,924.5
2023-04-25T14:05:01.739Z,925.4
2023-04-25T14:06:45.137Z,924.2
2023-04-25T14:08:28.538Z,922.8
2023-04-25T14:10:11.930Z,923
2023-04-25T14:11:55.313Z,922.3
2023-04-25T14:13:39.176Z,922.4
2023-04-25T14:15:22.523Z,921.1
2023-04-25T14:17:05.815Z,917.5
2023-04-25T14:18:49.223Z,920.4
2023-04-25T14:20:32.672Z,921.5
2023-04-25T14:22:16.018Z,918.6
2023-04-25T14:23:59.505Z,921.2
2023-04-25T14:25:42.799Z,921.6
2023-04-25T14:27:26.196Z,922.5
2023-04-25T14:32:35.511Z,914.1
2023-04-25T14:34:18.841Z,910.2
2023-04-25T14:36:02.237Z,911
2023-04-25T14:37:45.750Z,911.6
2023-04-25T14:39:29.127Z,912
2023-04-25T14:41:12.478Z,915.5
2023-04-25T14:42:55.898Z,914.1
2023-04-25T14:44:39.329Z,915.3
2023-04-25T14:49:48.538Z,929.5
2023-04-25T14:51:31.920Z,931.7
2023-04-25T14:53:15.263Z,931.6
2023-04-25T14:54:58.657Z,943.6
2023-04-25T14:56:42.042Z,952.7
2023-04-25T14:58:25.468Z,952.4
2023-04-25T15:00:08.845Z,955.1
2023-04-25T15:01:52.414Z,959
2023-04-25T15:05:18.720Z,961.3
2023-04-25T15:07:02.220Z,970.4
2023-04-25T15:08:45.613Z,977.4
2023-04-25T15:10:28.915Z,982.6
2023-04-25T15:12:12.402Z,986.3
2023-04-25T15:13:55.784Z,986.4
2023-04-25T15:15:39.147Z,998.3
2023-04-25T15:17:22.570Z,1010.3
2023-04-25T15:22:31.902Z,991.4
2023-04-25T15:24:15.314Z,991.8
2023-04-25T15:25:58.514Z,996.3
2023-04-25T15:27:42.016Z,1010.7
2023-04-25T15:29:25.422Z,1071.4
2023-04-25T15:31:08.816Z,1078.7
2023-04-25T15:32:52.181Z,1096
2023-04-25T15:34:35.627Z,1091.5
2023-04-25T15:38:02.092Z,1101.2
2023-04-25T15:39:45.358Z,1108.6
2023-04-25T15:41:28.789Z,1112.8
2023-04-25T15:43:12.165Z,1113.1
2023-04-25T15:44:55.624Z,1114.6
2023-04-25T15:46:39.003Z,1116.8
2023-04-25T15:48:22.537Z,1118
2023-04-25T15:50:05.758Z,1116
2023-04-25T15:55:14.998Z,1122.9
2023-04-25T15:56:58.466Z,1122.1
2023-04-25T16:00:25.303Z,1113.4
2023-04-25T16:02:08.564Z,1109.8
2023-04-25T16:03:51.967Z,1105.6
2023-04-25T16:05:35.399Z,1104.1
2023-04-25T16:07:18.838Z,1101
2023-04-25T16:12:28.007Z,1087.1
2023-04-25T16:14:11.473Z,1082.2
2023-04-25T16:15:54.799Z,1080.2
2023-04-25T16:17:38.254Z,1075.5
2023-04-25T16:19:21.655Z,1072
2023-04-25T16:21:04.998Z,1067.4
2023-04-25T16:22:48.472Z,1061.5
2023-04-25T16:24:31.819Z,1057.8
2023-04-25T16:29:41.044Z,1038.8
2023-04-25T16:31:24.507Z,1034.7
2023-04-25T16:33:07.935Z,1030.5
2023-04-25T16:34:51.205Z,1026
2023-04-25T16:36:34.611Z,1022.6
2023-04-25T16:38:18.126Z,1018.6
2023-04-25T16:40:01.551Z,1011.7
2023-04-25T16:41:44.885Z,1004.8
2023-04-25T16:43:28.379Z,1000.2
2023-04-25T16:45:12.035Z,998.1
2023-04-25T16:46:55.328Z,998
2023-04-25T16:48:38.905Z,997
2023-04-25T16:50:22.142Z,992.1
2023-04-25T16:52:05.561Z,987.4
2023-04-25T16:53:48.933Z,983.3
2023-04-25T16:55:32.341Z,980.5
2023-04-25T16:57:15.689Z,976.7
2023-04-25T16:58:59.075Z,971.1
2023-04-25T17:02:25.654Z,965.7
2023-04-25T17:04:08.975Z,959.1
2023-04-25T17:05:52.399Z,958.3
2023-04-25T17:07:35.819Z,956
2023-04-25T17:09:19.156Z,951.4
2023-04-25T17:11:02.539Z,946.1
2023-04-25T17:12:45.994Z,939.8
2023-04-25T17:14:29.374Z,936.5
2023-04-25T17:21:22.044Z,926.8
2023-04-25T17:23:05.386Z,927.5
2023-04-25T17:24:48.762Z,928
2023-04-25T17:26:32.163Z,924.8
2023-04-25T17:28:15.598Z,924.1
2023-04-25T17:29:58.993Z,926.2
2023-04-25T17:31:42.368Z,926.2
2023-04-25T17:36:51.592Z,922.6
2023-04-25T17:38:34.992Z,919.3
2023-04-25T17:40:18.477Z,913.7
2023-04-25T17:42:01.793Z,911.4
2023-04-25T17:43:45.178Z,909
2023-04-25T17:45:28.553Z,907
2023-04-25T17:47:12.003Z,905.1
2023-04-25T17:48:55.342Z,901
2023-04-25T17:54:04.595Z,893.6
2023-04-25T17:55:47.987Z,891.2
2023-04-25T17:57:31.380Z,889.7
2023-04-25T17:59:14.798Z,886
2023-04-25T18:00:58.228Z,882
2023-04-25T18:02:41.586Z,878.5
2023-04-25T18:04:25.028Z,874.6
2023-04-25T18:06:08.421Z,871
2023-04-25T18:11:17.625Z,862.2
2023-04-25T18:13:01.009Z,857.4
2023-04-25T18:14:44.417Z,854.5
2023-04-25T18:16:27.798Z,855.3
2023-04-25T18:18:11.215Z,854.7
2023-04-25T18:19:54.598Z,853.4
2023-04-25T18:21:37.996Z,849.2
2023-04-25T18:23:21.536Z,849.3
2023-04-25T18:26:47.961Z,850
2023-04-25T18:28:31.379Z,847.5
2023-04-25T18:30:14.655Z,846.2
2023-04-25T18:31:58.045Z,843.2
2023-04-25T18:33:41.491Z,837
2023-04-25T18:35:24.934Z,832.8
2023-04-25T18:37:08.419Z,830
2023-04-25T18:38:51.757Z,828.3
2023-04-25T18:44:00.920Z,820.3
2023-04-25T18:45:44.342Z,819
2023-04-25T18:47:27.717Z,816.2
2023-04-25T18:49:11.257Z,811.7
2023-04-25T18:50:54.527Z,808.1
2023-04-25T18:52:37.898Z,806.2
2023-04-25T18:54:21.341Z,804.7
2023-04-25T18:56:04.753Z,802.5
2023-04-25T18:57:48.097Z,799.4
2023-04-25T19:01:14.588Z,798.1
2023-04-25T19:02:58.009Z,795.6
2023-04-25T19:04:41.315Z,792
2023-04-25T19:06:24.763Z,789
2023-04-25T19:08:08.258Z,781.4
2023-04-25T19:09:51.529Z,770.6
2023-04-25T19:11:34.927Z,770.8
2023-04-25T19:13:18.288Z,772.3
2023-04-25T19:15:01.716Z,770
2023-04-25T19:18:28.174Z,765.7
2023-04-25T19:20:11.559Z,766.1
2023-04-25T19:21:54.943Z,763.4
2023-04-25T19:23:38.368Z,759.8
2023-04-25T19:25:21.758Z,754.7
2023-04-25T19:27:05.241Z,752.1
2023-04-25T19:28:48.553Z,752.4
2023-04-25T19:30:31.932Z,753.2
2023-04-25T19:35:41.181Z,743.8
2023-04-25T19:37:24.570Z,742.8
2023-04-25T19:39:07.980Z,742.4
2023-04-25T19:40:51.390Z,738.8
2023-04-25T19:42:34.759Z,737.1
2023-04-25T19:44:18.252Z,739.5
2023-04-25T19:46:01.556Z,738
2023-04-25T19:47:44.994Z,736.3
2023-04-25T19:49:28.411Z,733.7
2023-04-25T19:52:54.863Z,721.3
2023-04-25T19:54:38.297Z,720.8
2023-04-25T19:56:21.619Z,718.8
2023-04-25T19:58:05.066Z,715.6
2023-04-25T19:59:48.409Z,708.5
2023-04-25T20:01:31.904Z,704.1
2023-04-25T20:03:15.209Z,702
2023-04-25T20:04:58.625Z,699.6
2023-04-25T20:10:07.884Z,682.2
2023-04-25T20:11:51.229Z,682.4
2023-04-25T20:13:34.699Z,683
2023-04-25T20:15:18.055Z,682.1
2023-04-25T20:17:01.413Z,679.4
2023-04-25T20:18:44.834Z,678.3
2023-04-25T20:20:28.275Z,677.2
2023-04-25T20:22:11.620Z,673.7
2023-04-25T20:23:55.021Z,671.4
2023-04-25T20:25:38.704Z,667.8
2023-04-25T20:27:22.123Z,664.6
2023-04-25T20:29:05.604Z,662.3
2023-04-25T20:30:48.938Z,662.5
2023-04-25T20:32:32.364Z,661.2
2023-04-25T20:34:15.690Z,659.3
2023-04-25T20:35:59.096Z,657.5
2023-04-25T20:37:42.487Z,654.3
2023-04-25T20:39:25.964Z,655.3
2023-04-25T20:42:52.394Z,654.2
2023-04-25T20:44:35.749Z,653.3
2023-04-25T20:46:19.169Z,653.7
2023-04-25T20:48:02.569Z,654.7
2023-04-25T20:49:45.964Z,657.2
2023-04-25T20:51:29.330Z,664.7
2023-04-25T20:53:12.906Z,682
2023-04-25T20:54:56.166Z,703
2023-04-25T20:56:39.664Z,717
2023-04-25T20:58:23.277Z,721.6
2023-04-25T21:00:06.768Z,726.1
2023-04-25T21:01:50.053Z,733.5
2023-04-25T21:03:33.411Z,737.7
2023-04-25T21:05:16.900Z,740.5
2023-04-25T21:07:00.300Z,744.7
2023-04-25T21:08:43.819Z,747.7
2023-04-25T21:10:27.077Z,761.8
2023-04-25T21:15:36.313Z,771.5
2023-04-25T21:17:19.749Z,776.5
2023-04-25T21:19:03.133Z,781.3
2023-04-25T21:20:46.417Z,786.5
2023-04-25T21:22:29.831Z,793.3
2023-04-25T21:24:13.210Z,796.6
2023-04-25T21:25:56.608Z,801.3
2023-04-25T21:27:40.020Z,808.4
2023-04-25T21:32:49.245Z,818.6
2023-04-25T21:34:32.654Z,825
2023-04-25T21:36:16.066Z,831.5
2023-04-25T21:37:59.507Z,833.6
2023-04-25T21:39:42.902Z,836.7
2023-04-25T21:41:26.231Z,843.7
2023-04-25T21:43:09.646Z,850.6
2023-04-25T21:44:53.037Z,856.8
2023-04-25T21:50:02.272Z,867.8
2023-04-25T21:51:45.659Z,873.8
2023-04-25T21:53:29.067Z,877.3
2023-04-25T21:55:12.494Z,881.6
2023-04-25T21:56:55.872Z,885.8
2023-04-25T21:58:39.387Z,894.2
2023-04-25T22:00:22.643Z,898.1
2023-04-25T22:02:06.035Z,899.3
2023-04-25T22:07:15.349Z,910.3
2023-04-25T22:08:58.680Z,912.6
2023-04-25T22:10:42.266Z,919.4
2023-04-25T22:12:25.518Z,926.4
2023-04-25T22:14:08.918Z,929.3
2023-04-25T22:15:52.249Z,933
2023-04-25T22:17:35.649Z,936
2023-04-25T22:19:19.237Z,942.4
2023-04-25T22:21:02.463Z,948.8
2023-04-25T22:22:46.153Z,954
2023-04-25T22:24:29.548Z,961.1
2023-04-25T22:26:13.023Z,965.1
2023-04-25T22:27:56.348Z,965.6
2023-04-25T22:29:39.774Z,964.7
2023-04-25T22:31:23.224Z,961.8
2023-04-25T22:33:06.523Z,962.5
2023-04-25T22:34:49.930Z,963.1
2023-04-25T22:36:33.312Z,963.4
2023-04-25T22:38:17.025Z,965.6
2023-04-25T22:40:00.418Z,966.4
2023-04-25T22:41:43.813Z,965.7
2023-04-25T22:43:27.227Z,966.1
2023-04-25T22:45:10.606Z,966.5
2023-04-25T22:46:53.989Z,967.8
2023-04-25T22:48:37.494Z,968.3
2023-04-25T22:50:20.933Z,964.4
2023-04-25T22:55:30.076Z,960
2023-04-25T22:57:13.432Z,958.5
2023-04-25T22:58:56.818Z,960.6
2023-04-25T23:00:40.326Z,961
2023-04-25T23:02:23.610Z,959.1
2023-04-25T23:04:07.014Z,961.5
2023-04-25T23:05:50.443Z,963.7
2023-04-25T23:07:33.810Z,968.2
2023-04-25T23:09:17.300Z,965.7
2023-04-25T23:11:00.968Z,966.7
2023-04-25T23:12:44.305Z,966.3
2023-04-25T23:14:27.716Z,966.1
2023-04-25T23:16:11.105Z,963.8
2023-04-25T23:17:54.482Z,963.4
2023-04-25T23:19:37.944Z,961.8
2023-04-25T23:21:21.350Z,962.1
2023-04-25T23:23:04.680Z,956.8
2023-04-25T23:24:48.071Z,951.3
2023-04-25T23:28:14.558Z,937
2023-04-25T23:29:58.068Z,930.7
2023-04-25T23:31:41.364Z,930.4
2023-04-25T23:33:24.744Z,926.5
2023-04-25T23:35:08.144Z,925.2
2023-04-25T23:36:51.551Z,919.4
2023-04-25T23:38:34.926Z,913.5
2023-04-25T23:40:18.494Z,907.2
2023-04-25T23:42:01.714Z,904
2023-04-25T23:43:45.420Z,897.7
2023-04-25T23:45:28.819Z,889.8
2023-04-25T23:47:12.206Z,881
2023-04-25T23:48:55.756Z,877.6
2023-04-25T23:50:39.097Z,872.7
2023-04-25T23:52:22.385Z,867.6
2023-04-25T23:54:05.859Z,861.4
2023-04-25T23:55:49.240Z,857.4
2023-04-25T23:57:32.707Z,848.5
